createdAt,value
2017-12-31T00:01:05.641Z,11.74
2017-12-31T00:03:07.056Z,11.75
2017-12-31T00:05:08.490Z,11.75
2017-12-31T00:07:09.905Z,11.65
2017-12-31T00:09:11.323Z,11.67
2017-12-31T00:11:12.738Z,11.61
2017-12-31T00:13:14.201Z,11.46
2017-12-31T00:15:15.613Z,11.41
2017-12-31T00:17:17.028Z,11.41
2017-12-31T00:19:18.439Z,11.27
2017-12-31T00:21:19.854Z,11.25
2017-12-31T00:23:21.270Z,11.19
2017-12-31T00:25:22.682Z,11.20
2017-12-31T00:27:24.100Z,11.19
2017-12-31T00:29:25.516Z,11.20
2017-12-31T00:31:26.956Z,11.21
2017-12-31T00:33:28.382Z,11.19
2017-12-31T00:35:29.856Z,11.10
2017-12-31T00:37:31.265Z,11.03
2017-12-31T00:39:32.686Z,11.01
2017-12-31T00:41:34.136Z,10.95
2017-12-31T00:43:35.552Z,10.89
2017-12-31T00:45:37.091Z,10.83
2017-12-31T00:47:38.502Z,10.83
2017-12-31T00:49:39.914Z,10.81
2017-12-31T00:51:41.335Z,10.88
2017-12-31T00:53:42.750Z,10.84
2017-12-31T00:55:44.164Z,10.83
2017-12-31T00:57:45.576Z,10.86
2017-12-31T00:59:46.987Z,10.94
2017-12-31T01:01:48.394Z,10.83
2017-12-31T01:03:49.807Z,10.83
2017-12-31T01:05:51.220Z,10.88
2017-12-31T01:07:52.634Z,10.96
2017-12-31T01:09:54.209Z,10.98
2017-12-31T01:11:55.667Z,11.01
2017-12-31T01:13:57.081Z,11.02
2017-12-31T01:15:58.495Z,10.99
2017-12-31T01:17:59.910Z,10.96
2017-12-31T01:20:01.386Z,10.95
2017-12-31T01:22:02.865Z,10.94
2017-12-31T01:24:04.255Z,10.95
2017-12-31T01:26:05.671Z,10.99
2017-12-31T01:28:07.084Z,11.01
2017-12-31T01:30:08.505Z,10.98
2017-12-31T01:32:09.911Z,10.98
2017-12-31T01:34:11.327Z,11.10
2017-12-31T01:36:12.733Z,11.11
2017-12-31T01:38:14.155Z,11.24
2017-12-31T01:40:15.629Z,11.21
2017-12-31T01:42:17.046Z,11.19
2017-12-31T01:44:18.459Z,11.17
2017-12-31T01:46:19.874Z,11.16
2017-12-31T01:48:21.293Z,11.16
2017-12-31T01:50:22.704Z,11.11
2017-12-31T01:52:24.124Z,10.98
2017-12-31T01:54:25.537Z,10.98
2017-12-31T01:56:26.950Z,11.02
2017-12-31T01:58:28.384Z,11.03
2017-12-31T02:00:29.829Z,10.96
2017-12-31T02:02:31.248Z,11.07
2017-12-31T02:04:32.662Z,11.01
2017-12-31T02:06:34.076Z,10.98
2017-12-31T02:08:35.488Z,11.01
2017-12-31T02:10:36.904Z,11.01
2017-12-31T02:12:38.317Z,10.99
2017-12-31T02:14:39.732Z,10.99
2017-12-31T02:16:41.145Z,10.89
2017-12-31T02:18:42.560Z,10.80
2017-12-31T02:20:43.973Z,10.89
2017-12-31T02:22:45.387Z,10.83
2017-12-31T02:24:46.808Z,10.84
2017-12-31T02:26:48.214Z,10.70
2017-12-31T02:28:49.674Z,10.65
2017-12-31T02:30:51.230Z,10.62
2017-12-31T02:32:52.638Z,10.68
2017-12-31T02:34:54.080Z,10.62
2017-12-31T02:36:55.551Z,10.71
2017-12-31T02:38:56.972Z,10.74
2017-12-31T02:40:58.380Z,10.73
2017-12-31T02:42:59.804Z,10.66
2017-12-31T02:45:01.197Z,10.58
2017-12-31T02:47:02.627Z,10.60
2017-12-31T02:49:04.037Z,10.71
2017-12-31T02:51:05.525Z,10.68
2017-12-31T02:53:06.989Z,10.59
2017-12-31T02:55:08.401Z,10.60
2017-12-31T02:57:09.824Z,10.60
2017-12-31T02:59:11.290Z,10.66
2017-12-31T03:01:12.966Z,10.56
2017-12-31T03:03:14.402Z,10.53
2017-12-31T03:05:15.842Z,10.51
2017-12-31T03:07:17.359Z,10.63
2017-12-31T03:09:18.784Z,10.59
2017-12-31T03:11:20.247Z,10.53
2017-12-31T03:13:21.671Z,10.44
2017-12-31T03:15:23.221Z,10.53
2017-12-31T03:17:24.864Z,10.53
2017-12-31T03:19:26.540Z,10.46
2017-12-31T03:21:27.970Z,10.40
2017-12-31T03:23:29.388Z,10.40
2017-12-31T03:25:30.813Z,10.51
2017-12-31T03:27:32.225Z,10.39
2017-12-31T03:29:33.639Z,10.53
2017-12-31T03:31:35.052Z,10.44
2017-12-31T03:33:36.468Z,10.37
2017-12-31T03:35:37.888Z,10.32
2017-12-31T03:37:39.355Z,10.37
2017-12-31T03:39:40.838Z,10.46
2017-12-31T03:41:42.314Z,10.47
2017-12-31T03:43:43.741Z,10.60
2017-12-31T03:45:45.151Z,10.51
2017-12-31T03:47:46.567Z,10.47
2017-12-31T03:49:47.983Z,10.56
2017-12-31T03:51:49.388Z,10.58
2017-12-31T03:53:50.826Z,10.51
2017-12-31T03:55:52.369Z,10.43
2017-12-31T03:57:53.791Z,10.36
2017-12-31T03:59:55.207Z,10.40
2017-12-31T04:01:56.619Z,10.37
2017-12-31T04:03:58.032Z,10.44
2017-12-31T04:05:59.444Z,10.44
2017-12-31T04:08:00.860Z,10.52
2017-12-31T04:10:02.270Z,10.62
2017-12-31T04:12:03.687Z,10.73
2017-12-31T04:14:05.201Z,10.83
2017-12-31T04:16:06.620Z,10.83
2017-12-31T04:18:08.367Z,10.78
2017-12-31T04:20:09.796Z,10.96
2017-12-31T04:22:11.211Z,10.98
2017-12-31T04:24:12.624Z,11.10
2017-12-31T04:26:14.040Z,11.16
2017-12-31T04:28:15.532Z,11.24
2017-12-31T04:30:17.011Z,11.32
2017-12-31T04:32:18.427Z,11.28
2017-12-31T04:34:19.838Z,11.34
2017-12-31T04:36:21.253Z,11.41
2017-12-31T04:38:22.670Z,11.34
2017-12-31T04:40:24.082Z,11.41
2017-12-31T04:42:25.497Z,11.32
2017-12-31T04:44:26.913Z,11.27
2017-12-31T04:46:28.321Z,11.21
2017-12-31T04:48:29.737Z,11.11
2017-12-31T04:50:31.150Z,11.10
2017-12-31T04:52:32.565Z,10.94
2017-12-31T04:54:34.000Z,10.96
2017-12-31T04:56:35.410Z,10.89
2017-12-31T04:58:36.830Z,10.96
2017-12-31T05:00:38.240Z,10.92
2017-12-31T05:02:39.655Z,10.92
2017-12-31T05:04:41.068Z,10.81
2017-12-31T05:06:42.484Z,10.65
2017-12-31T05:08:43.898Z,10.70
2017-12-31T05:10:45.299Z,10.63
2017-12-31T05:12:46.743Z,10.70
2017-12-31T05:14:48.156Z,10.63
2017-12-31T05:16:49.572Z,10.63
2017-12-31T05:18:51.028Z,10.60
2017-12-31T05:20:52.443Z,10.56
2017-12-31T05:22:53.857Z,10.53
2017-12-31T05:24:55.272Z,10.53
2017-12-31T05:26:56.703Z,10.55
2017-12-31T05:28:58.111Z,10.56
2017-12-31T05:30:59.520Z,10.66
2017-12-31T05:33:00.938Z,10.59
2017-12-31T05:35:02.352Z,10.65
2017-12-31T05:37:03.800Z,10.66
2017-12-31T05:39:05.316Z,10.71
2017-12-31T05:41:06.728Z,10.66
2017-12-31T05:43:08.136Z,10.86
2017-12-31T05:45:09.552Z,10.94
2017-12-31T05:47:10.962Z,10.86
2017-12-31T05:49:12.380Z,10.88
2017-12-31T05:51:13.795Z,11.11
2017-12-31T05:53:15.204Z,10.98
2017-12-31T05:55:16.616Z,11.06
2017-12-31T05:57:18.029Z,11.13
2017-12-31T05:59:19.456Z,11.25
2017-12-31T06:01:20.885Z,11.16
2017-12-31T06:03:22.316Z,11.25
2017-12-31T06:05:23.723Z,11.28
2017-12-31T06:07:25.174Z,11.31
2017-12-31T06:09:26.599Z,11.41
2017-12-31T06:11:28.012Z,11.44
2017-12-31T06:13:29.424Z,11.49
2017-12-31T06:15:30.837Z,11.49
2017-12-31T06:17:32.254Z,11.49
2017-12-31T06:19:33.667Z,11.56
2017-12-31T06:21:35.091Z,11.62
2017-12-31T06:23:36.508Z,11.61
2017-12-31T06:25:37.925Z,11.72
2017-12-31T06:27:39.338Z,11.72
2017-12-31T06:29:40.755Z,11.70
2017-12-31T06:31:42.174Z,11.71
2017-12-31T06:33:43.592Z,11.68
2017-12-31T06:35:45.008Z,11.70
2017-12-31T06:37:46.416Z,11.71
2017-12-31T06:39:47.836Z,11.80
2017-12-31T06:41:49.265Z,11.83
2017-12-31T06:43:50.686Z,11.72
2017-12-31T06:45:52.098Z,11.75
2017-12-31T06:47:53.516Z,11.75
2017-12-31T06:49:54.933Z,11.74
2017-12-31T06:51:56.347Z,11.75
2017-12-31T06:53:57.759Z,11.75
2017-12-31T06:55:59.187Z,11.86
2017-12-31T06:58:00.634Z,11.86
2017-12-31T07:00:02.055Z,11.85
2017-12-31T07:02:03.486Z,11.93
2017-12-31T07:04:04.906Z,11.96
2017-12-31T07:06:06.324Z,11.86
2017-12-31T07:08:07.736Z,11.90
2017-12-31T07:10:09.150Z,11.86
2017-12-31T07:12:10.565Z,11.93
2017-12-31T07:14:11.981Z,11.86
2017-12-31T07:16:13.442Z,11.99
2017-12-31T07:18:14.810Z,11.93
2017-12-31T07:20:16.224Z,11.97
2017-12-31T07:22:17.643Z,12.06
2017-12-31T07:24:19.090Z,12.04
2017-12-31T07:26:20.548Z,12.05
2017-12-31T07:28:21.965Z,11.97
2017-12-31T07:30:23.372Z,12.01
2017-12-31T07:32:24.804Z,11.99
2017-12-31T07:34:26.216Z,11.94
2017-12-31T07:36:27.630Z,12.01
2017-12-31T07:38:29.046Z,11.96
2017-12-31T07:40:30.460Z,11.93
2017-12-31T07:42:31.877Z,11.93
2017-12-31T07:44:33.291Z,11.94
2017-12-31T07:46:34.713Z,11.97
2017-12-31T07:48:36.124Z,11.94
2017-12-31T07:50:37.543Z,11.96
2017-12-31T07:52:39.007Z,12.05
2017-12-31T07:54:40.433Z,12.02
2017-12-31T07:56:41.849Z,11.99
2017-12-31T07:58:43.267Z,11.94
2017-12-31T08:00:44.685Z,12.06
2017-12-31T08:02:46.099Z,12.02
2017-12-31T08:04:47.517Z,12.01
2017-12-31T08:06:48.930Z,12.15
2017-12-31T08:08:50.353Z,12.04
2017-12-31T08:10:51.766Z,12.05
2017-12-31T08:12:53.182Z,12.02
2017-12-31T08:14:54.597Z,12.16
2017-12-31T08:16:56.010Z,12.13
2017-12-31T08:18:57.432Z,12.09
2017-12-31T08:20:58.846Z,12.20
2017-12-31T08:23:00.285Z,12.13
2017-12-31T08:25:01.710Z,12.15
2017-12-31T08:27:03.124Z,12.20
2017-12-31T08:29:04.617Z,12.30
2017-12-31T08:31:06.028Z,12.30
2017-12-31T08:33:07.446Z,12.30
2017-12-31T08:35:08.862Z,12.29
2017-12-31T08:37:10.279Z,12.30
2017-12-31T08:39:11.697Z,12.37
2017-12-31T08:41:13.116Z,12.37
2017-12-31T08:43:14.534Z,12.41
2017-12-31T08:45:15.949Z,12.41
2017-12-31T08:47:17.386Z,12.38
2017-12-31T08:49:18.803Z,12.37
2017-12-31T08:51:20.220Z,12.42
2017-12-31T08:53:21.634Z,12.37
2017-12-31T08:55:23.051Z,12.39
2017-12-31T08:57:24.467Z,12.34
2017-12-31T08:59:26.151Z,12.34
2017-12-31T09:01:27.568Z,12.38
2017-12-31T09:03:28.987Z,12.44
2017-12-31T09:05:30.405Z,12.51
2017-12-31T09:07:31.822Z,12.48
2017-12-31T09:09:33.238Z,12.51
2017-12-31T09:11:34.658Z,12.51
2017-12-31T09:13:36.076Z,12.52
2017-12-31T09:15:37.492Z,12.56
2017-12-31T09:17:38.915Z,12.52
2017-12-31T09:19:40.344Z,12.60
2017-12-31T09:21:41.818Z,12.57
2017-12-31T09:23:43.301Z,12.60
2017-12-31T09:25:44.736Z,12.64
2017-12-31T09:27:46.169Z,12.64
2017-12-31T09:29:47.606Z,12.57
2017-12-31T09:31:49.053Z,12.64
2017-12-31T09:33:50.520Z,12.60
2017-12-31T09:35:52.049Z,12.59
2017-12-31T09:37:53.412Z,12.66
2017-12-31T09:39:54.884Z,12.63
2017-12-31T09:41:56.338Z,12.60
2017-12-31T09:43:57.763Z,12.57
2017-12-31T09:45:59.178Z,12.57
2017-12-31T09:48:00.601Z,12.49
2017-12-31T09:50:02.022Z,12.42
2017-12-31T09:52:03.439Z,12.38
2017-12-31T09:54:04.867Z,12.38
2017-12-31T09:56:06.382Z,12.39
2017-12-31T09:58:07.781Z,12.39
2017-12-31T10:00:09.201Z,12.34
2017-12-31T10:02:10.626Z,12.39
2017-12-31T10:04:12.045Z,12.41
2017-12-31T10:06:13.461Z,12.45
2017-12-31T10:08:14.940Z,12.46
2017-12-31T10:10:16.368Z,12.52
2017-12-31T10:12:17.791Z,12.62
2017-12-31T10:14:19.207Z,12.60
2017-12-31T10:16:20.627Z,12.62
2017-12-31T10:18:22.045Z,12.67
2017-12-31T10:20:23.461Z,12.64
2017-12-31T10:22:24.882Z,12.63
2017-12-31T10:24:26.297Z,12.64
2017-12-31T10:26:27.717Z,12.69
2017-12-31T10:28:29.209Z,12.69
2017-12-31T10:30:30.638Z,12.78
2017-12-31T10:32:32.063Z,12.81
2017-12-31T10:34:33.478Z,12.77
2017-12-31T10:36:34.894Z,12.81
2017-12-31T10:38:36.314Z,12.79
2017-12-31T10:40:37.733Z,12.88
2017-12-31T10:42:39.159Z,12.92
2017-12-31T10:44:40.604Z,12.93
2017-12-31T10:46:42.132Z,12.95
2017-12-31T10:48:43.683Z,12.97
2017-12-31T10:50:45.126Z,12.97
2017-12-31T10:52:46.586Z,13.06
2017-12-31T10:54:47.983Z,13.15
2017-12-31T10:56:49.449Z,13.24
2017-12-31T10:58:50.892Z,13.22
2017-12-31T11:00:52.419Z,13.32
2017-12-31T11:02:54.074Z,13.32
2017-12-31T11:04:55.510Z,13.27
2017-12-31T11:06:56.944Z,13.29
2017-12-31T11:08:58.372Z,13.41
2017-12-31T11:10:59.880Z,13.32
2017-12-31T11:13:01.443Z,13.41
2017-12-31T11:15:03.001Z,13.46
2017-12-31T11:17:04.665Z,13.55
2017-12-31T11:19:06.332Z,13.52
2017-12-31T11:21:07.964Z,13.54
2017-12-31T11:23:09.701Z,13.54
2017-12-31T11:25:11.140Z,13.61
2017-12-31T11:27:12.595Z,13.59
2017-12-31T11:29:14.151Z,13.59
2017-12-31T11:31:15.800Z,13.70
2017-12-31T11:33:17.522Z,13.62
2017-12-31T11:35:18.978Z,13.73
2017-12-31T11:37:20.422Z,13.71
2017-12-31T11:39:21.853Z,13.71
2017-12-31T11:41:23.555Z,13.74
2017-12-31T11:43:25.350Z,13.79
2017-12-31T11:45:26.784Z,13.84
2017-12-31T11:47:28.241Z,13.79
2017-12-31T11:49:29.674Z,13.96
2017-12-31T11:51:31.189Z,13.99
2017-12-31T11:53:32.691Z,13.95
2017-12-31T11:55:34.394Z,13.95
2017-12-31T11:57:36.131Z,14.09
2017-12-31T11:59:37.811Z,14.07
2017-12-31T12:01:39.520Z,14.13
2017-12-31T12:03:41.026Z,13.99
2017-12-31T12:05:42.472Z,14.10
2017-12-31T12:07:43.910Z,13.94
2017-12-31T12:09:45.354Z,14.02
2017-12-31T12:11:47.008Z,13.98
2017-12-31T12:13:48.658Z,14.09
2017-12-31T12:15:50.353Z,14.02
2017-12-31T12:17:52.106Z,14.06
2017-12-31T12:19:53.515Z,14.12
2017-12-31T12:21:54.970Z,14.20
2017-12-31T12:23:56.401Z,14.20
2017-12-31T12:25:57.824Z,14.17
2017-12-31T12:27:59.246Z,14.14
2017-12-31T12:30:00.676Z,14.13
2017-12-31T12:32:02.096Z,14.19
2017-12-31T12:34:03.516Z,14.16
2017-12-31T12:36:04.936Z,14.35
2017-12-31T12:38:06.355Z,14.31
2017-12-31T12:40:07.869Z,14.38
2017-12-31T12:42:09.253Z,14.34
2017-12-31T12:44:10.680Z,14.32
2017-12-31T12:46:12.141Z,14.28
2017-12-31T12:48:13.553Z,14.35
2017-12-31T12:50:14.972Z,14.32
2017-12-31T12:52:16.443Z,14.29
2017-12-31T12:54:17.813Z,14.27
2017-12-31T12:56:19.259Z,14.28
2017-12-31T12:58:20.675Z,14.16
2017-12-31T13:00:22.106Z,14.02
2017-12-31T13:02:23.528Z,13.99
2017-12-31T13:04:24.948Z,13.83
2017-12-31T13:06:26.369Z,13.79
2017-12-31T13:08:27.788Z,13.65
2017-12-31T13:10:29.211Z,13.59
2017-12-31T13:12:30.629Z,13.54
2017-12-31T13:14:32.048Z,13.40
2017-12-31T13:16:33.478Z,13.44
2017-12-31T13:18:34.890Z,13.38
2017-12-31T13:20:36.315Z,13.30
2017-12-31T13:22:37.732Z,13.43
2017-12-31T13:24:39.148Z,13.43
2017-12-31T13:26:40.568Z,13.62
2017-12-31T13:28:41.985Z,13.63
2017-12-31T13:30:43.407Z,13.74
2017-12-31T13:32:44.945Z,13.76
2017-12-31T13:34:46.368Z,13.80
2017-12-31T13:36:47.781Z,13.88
2017-12-31T13:38:49.199Z,13.80
2017-12-31T13:40:50.620Z,13.83
2017-12-31T13:42:52.044Z,13.83
2017-12-31T13:44:53.462Z,13.96
2017-12-31T13:46:54.881Z,13.92
2017-12-31T13:48:56.433Z,13.94
2017-12-31T13:50:57.878Z,14.04
2017-12-31T13:52:59.296Z,13.95
2017-12-31T13:55:00.719Z,13.94
2017-12-31T13:57:02.137Z,13.96
2017-12-31T13:59:03.555Z,13.95
2017-12-31T14:01:04.979Z,13.95
2017-12-31T14:03:06.386Z,13.96
2017-12-31T14:05:07.998Z,13.98
2017-12-31T14:07:09.427Z,13.92
2017-12-31T14:09:10.837Z,14.01
2017-12-31T14:11:12.253Z,13.92
2017-12-31T14:13:13.673Z,13.99
2017-12-31T14:15:15.093Z,13.92
2017-12-31T14:17:16.608Z,13.95
2017-12-31T14:19:18.015Z,13.99
2017-12-31T14:21:19.432Z,13.95
2017-12-31T14:23:20.922Z,13.96
2017-12-31T14:25:22.377Z,13.95
2017-12-31T14:27:23.797Z,13.98
2017-12-31T14:29:25.223Z,14.01
2017-12-31T14:31:26.643Z,13.95
2017-12-31T14:33:30.013Z,13.95
2017-12-31T14:35:31.466Z,13.94
2017-12-31T14:37:32.880Z,13.91
2017-12-31T14:39:34.301Z,13.87
2017-12-31T14:41:35.716Z,13.89
2017-12-31T14:43:37.145Z,13.87
2017-12-31T14:45:38.570Z,13.80
2017-12-31T14:47:39.991Z,13.80
2017-12-31T14:49:41.410Z,13.95
2017-12-31T14:51:42.827Z,13.94
2017-12-31T14:53:44.243Z,13.91
2017-12-31T14:55:45.675Z,13.83
2017-12-31T14:57:47.253Z,13.84
2017-12-31T14:59:48.669Z,13.81
2017-12-31T15:01:50.090Z,13.81
2017-12-31T15:03:51.508Z,13.81
2017-12-31T15:05:52.937Z,13.77
2017-12-31T15:07:54.354Z,13.84
2017-12-31T15:09:55.772Z,13.76
2017-12-31T15:11:57.204Z,13.69
2017-12-31T15:13:58.631Z,13.58
2017-12-31T15:16:00.053Z,13.49
2017-12-31T15:18:01.471Z,13.24
2017-12-31T15:20:02.892Z,13.20
2017-12-31T15:22:04.309Z,13.12
2017-12-31T15:24:05.727Z,12.93
2017-12-31T15:26:07.145Z,12.96
2017-12-31T15:28:08.561Z,12.92
2017-12-31T15:30:09.979Z,12.75
2017-12-31T15:32:11.393Z,12.71
2017-12-31T15:34:12.808Z,12.62
2017-12-31T15:36:14.226Z,12.63
2017-12-31T15:38:15.653Z,12.66
2017-12-31T15:40:17.053Z,12.64
2017-12-31T15:42:18.474Z,12.54
2017-12-31T15:44:19.888Z,12.57
2017-12-31T15:46:21.310Z,12.57
2017-12-31T15:48:22.813Z,12.64
2017-12-31T15:50:24.201Z,12.52
2017-12-31T15:52:25.619Z,12.45
2017-12-31T15:54:27.048Z,12.41
2017-12-31T15:56:28.486Z,12.38
2017-12-31T15:58:33.053Z,12.33
2017-12-31T16:00:34.535Z,12.16
2017-12-31T16:02:35.995Z,12.19
2017-12-31T16:04:37.435Z,12.13
2017-12-31T16:06:38.853Z,12.11
2017-12-31T16:08:40.269Z,12.08
2017-12-31T16:10:41.687Z,12.05
2017-12-31T16:12:43.101Z,12.02
2017-12-31T16:14:44.520Z,12.05
2017-12-31T16:16:45.935Z,11.86
2017-12-31T16:18:47.346Z,11.86
2017-12-31T16:20:48.810Z,11.83
2017-12-31T16:22:50.222Z,11.94
2017-12-31T16:24:51.650Z,11.83
2017-12-31T16:26:53.053Z,11.87
2017-12-31T16:28:54.467Z,11.80
2017-12-31T16:30:55.881Z,11.80
2017-12-31T16:32:57.298Z,11.83
2017-12-31T16:34:58.728Z,11.78
2017-12-31T16:37:00.150Z,11.74
2017-12-31T16:39:01.565Z,11.74
2017-12-31T16:41:02.992Z,11.82
2017-12-31T16:43:04.412Z,11.72
2017-12-31T16:45:05.839Z,11.68
2017-12-31T16:47:07.248Z,11.70
2017-12-31T16:49:08.652Z,11.68
2017-12-31T16:51:10.078Z,11.65
2017-12-31T16:53:11.491Z,11.62
2017-12-31T16:55:13.031Z,11.67
2017-12-31T16:57:14.600Z,11.71
2017-12-31T16:59:16.105Z,11.72
2017-12-31T17:01:17.516Z,11.70
2017-12-31T17:03:18.935Z,11.70
2017-12-31T17:05:20.346Z,11.64
2017-12-31T17:07:21.762Z,11.70
2017-12-31T17:09:23.180Z,11.72
2017-12-31T17:11:24.596Z,11.67
2017-12-31T17:13:26.012Z,11.62
2017-12-31T17:15:27.426Z,11.65
2017-12-31T17:17:28.844Z,11.59
2017-12-31T17:19:30.272Z,11.62
2017-12-31T17:21:31.686Z,11.70
2017-12-31T17:23:33.261Z,11.62
2017-12-31T17:25:34.736Z,11.62
2017-12-31T17:27:36.171Z,11.65
2017-12-31T17:29:37.587Z,11.57
2017-12-31T17:31:39.005Z,11.56
2017-12-31T17:33:40.417Z,11.56
2017-12-31T17:35:41.848Z,11.53
2017-12-31T17:37:43.312Z,11.44
2017-12-31T17:39:44.732Z,11.59
2017-12-31T17:41:46.138Z,11.67
2017-12-31T17:43:47.574Z,11.50
2017-12-31T17:45:48.989Z,11.47
2017-12-31T17:47:50.491Z,11.47
2017-12-31T17:49:51.926Z,11.43
2017-12-31T17:51:53.346Z,11.43
2017-12-31T17:53:54.808Z,11.39
2017-12-31T17:55:56.248Z,11.36
2017-12-31T17:57:57.691Z,11.43
2017-12-31T17:59:59.140Z,11.41
2017-12-31T18:02:01.081Z,11.41
2017-12-31T18:04:02.517Z,11.47
2017-12-31T18:06:03.929Z,11.43
2017-12-31T18:08:05.354Z,11.29
2017-12-31T18:10:06.768Z,11.43
2017-12-31T18:12:08.464Z,11.41
2017-12-31T18:14:10.153Z,11.49
2017-12-31T18:16:11.662Z,11.41
2017-12-31T18:18:13.092Z,11.35
2017-12-31T18:20:14.495Z,11.44
2017-12-31T18:22:15.927Z,11.43
2017-12-31T18:24:17.423Z,11.39
2017-12-31T18:26:18.839Z,11.47
2017-12-31T18:28:20.253Z,11.38
2017-12-31T18:30:21.669Z,11.43
2017-12-31T18:32:23.084Z,11.39
2017-12-31T18:34:24.498Z,11.43
2017-12-31T18:37:06.904Z,11.47
2017-12-31T18:39:08.323Z,11.46
2017-12-31T18:41:09.735Z,11.41
2017-12-31T18:43:11.153Z,11.35
2017-12-31T18:45:12.579Z,11.29
2017-12-31T18:47:13.994Z,11.28
2017-12-31T18:49:15.417Z,11.35
2017-12-31T18:51:16.817Z,11.28
2017-12-31T18:53:18.240Z,11.29
2017-12-31T18:55:19.656Z,11.17
2017-12-31T18:57:21.069Z,11.32
2017-12-31T18:59:22.484Z,11.35
2017-12-31T19:01:23.897Z,11.32
2017-12-31T19:03:25.311Z,11.29
2017-12-31T19:05:26.724Z,11.31
2017-12-31T19:07:28.141Z,11.20
2017-12-31T19:09:29.560Z,11.32
2017-12-31T19:11:30.973Z,11.32
2017-12-31T19:13:32.399Z,11.21
2017-12-31T19:15:33.821Z,11.19
2017-12-31T19:17:35.237Z,11.21
2017-12-31T19:19:36.655Z,11.20
2017-12-31T19:21:38.069Z,11.20
2017-12-31T19:23:39.482Z,11.25
2017-12-31T19:25:40.901Z,11.19
2017-12-31T19:27:42.313Z,11.20
2017-12-31T19:29:43.725Z,11.31
2017-12-31T19:31:45.135Z,11.28
2017-12-31T19:33:46.554Z,11.17
2017-12-31T19:35:47.968Z,11.25
2017-12-31T19:37:49.402Z,11.16
2017-12-31T19:39:50.799Z,11.27
2017-12-31T19:41:52.214Z,11.20
2017-12-31T19:43:53.630Z,11.19
2017-12-31T19:45:55.049Z,11.25
2017-12-31T19:47:56.458Z,11.20
2017-12-31T19:49:57.878Z,11.17
2017-12-31T19:51:59.290Z,11.07
2017-12-31T19:54:00.705Z,11.10
2017-12-31T19:56:02.119Z,11.20
2017-12-31T19:58:03.536Z,11.10
2017-12-31T20:00:04.946Z,11.16
2017-12-31T20:02:06.358Z,11.16
2017-12-31T20:04:07.776Z,11.06
2017-12-31T20:06:09.190Z,11.01
2017-12-31T20:08:10.607Z,10.96
2017-12-31T20:10:12.022Z,10.96
2017-12-31T20:12:13.432Z,10.88
2017-12-31T20:14:14.846Z,10.96
2017-12-31T20:16:16.263Z,10.88
2017-12-31T20:18:17.675Z,10.84
2017-12-31T20:20:19.117Z,10.95
2017-12-31T20:22:20.592Z,10.86
2017-12-31T20:24:21.989Z,10.81
2017-12-31T20:26:23.398Z,10.80
2017-12-31T20:28:24.814Z,10.83
2017-12-31T20:30:26.235Z,10.68
2017-12-31T20:32:27.670Z,10.77
2017-12-31T20:34:29.124Z,10.78
2017-12-31T20:36:30.578Z,10.66
2017-12-31T20:38:31.996Z,10.63
2017-12-31T20:40:33.411Z,10.62
2017-12-31T20:42:34.836Z,10.70
2017-12-31T20:44:36.276Z,10.68
2017-12-31T20:46:37.677Z,10.66
2017-12-31T20:48:39.093Z,10.58
2017-12-31T20:50:40.504Z,10.68
2017-12-31T20:52:41.921Z,10.65
2017-12-31T20:54:43.336Z,10.56
2017-12-31T20:56:44.748Z,10.58
2017-12-31T20:58:46.160Z,10.59
2017-12-31T21:00:47.582Z,10.58
2017-12-31T21:02:48.990Z,10.60
2017-12-31T21:04:50.457Z,10.55
2017-12-31T21:06:51.876Z,10.56
2017-12-31T21:08:53.290Z,10.42
2017-12-31T21:10:54.702Z,10.47
2017-12-31T21:12:56.117Z,10.40
2017-12-31T21:14:57.528Z,10.34
2017-12-31T21:16:58.937Z,10.33
2017-12-31T21:19:00.360Z,10.22
2017-12-31T21:21:01.823Z,10.32
2017-12-31T21:23:03.372Z,10.30
2017-12-31T21:25:04.779Z,10.28
2017-12-31T21:27:06.191Z,10.33
2017-12-31T21:29:07.709Z,10.22
2017-12-31T21:31:09.246Z,10.28
2017-12-31T21:33:10.660Z,10.18
2017-12-31T21:35:12.076Z,10.25
2017-12-31T21:37:13.488Z,10.24
2017-12-31T21:39:14.904Z,10.36
2017-12-31T21:41:16.323Z,10.22
2017-12-31T21:43:17.745Z,10.28
2017-12-31T21:45:19.153Z,10.25
2017-12-31T21:47:20.567Z,10.28
2017-12-31T21:49:21.999Z,10.28
2017-12-31T21:51:23.436Z,10.22
2017-12-31T21:53:24.848Z,10.28
2017-12-31T21:55:26.263Z,10.24
2017-12-31T21:57:27.679Z,10.30
2017-12-31T21:59:29.088Z,10.34
2017-12-31T22:01:30.503Z,10.33
2017-12-31T22:03:31.907Z,10.25
2017-12-31T22:05:33.379Z,10.34
2017-12-31T22:07:34.818Z,10.39
2017-12-31T22:09:36.228Z,10.40
2017-12-31T22:11:37.688Z,10.33
2017-12-31T22:13:39.373Z,10.37
2017-12-31T22:15:41.027Z,10.28
2017-12-31T22:17:42.619Z,10.33
2017-12-31T22:19:44.067Z,10.37
2017-12-31T22:21:45.516Z,10.37
2017-12-31T22:23:46.963Z,10.33
2017-12-31T22:25:48.379Z,10.28
2017-12-31T22:27:49.797Z,10.34
2017-12-31T22:29:51.243Z,10.32
2017-12-31T22:31:52.722Z,10.24
2017-12-31T22:33:54.145Z,10.25
2017-12-31T22:35:55.588Z,10.14
2017-12-31T22:37:57.009Z,10.14
2017-12-31T22:39:58.422Z,10.15
2017-12-31T22:41:59.835Z,10.09
2017-12-31T22:44:01.248Z,10.18
2017-12-31T22:46:02.663Z,10.14
2017-12-31T22:48:04.077Z,10.14
2017-12-31T22:50:05.508Z,10.07
2017-12-31T22:52:06.922Z,10.07
2017-12-31T22:54:08.391Z,10.06
2017-12-31T22:56:09.808Z,10.07
2017-12-31T22:58:11.219Z,10.07
2017-12-31T23:00:12.632Z,10.12
2017-12-31T23:02:14.104Z,10.12
2017-12-31T23:04:15.626Z,10.19
2017-12-31T23:06:17.031Z,10.21
2017-12-31T23:08:18.444Z,10.30
2017-12-31T23:10:19.846Z,10.25
2017-12-31T23:12:21.269Z,10.14
2017-12-31T23:14:22.673Z,10.17
2017-12-31T23:16:24.126Z,10.22
2017-12-31T23:18:25.508Z,10.21
2017-12-31T23:20:26.913Z,10.17
2017-12-31T23:22:28.326Z,10.21
2017-12-31T23:24:29.741Z,10.25
2017-12-31T23:26:31.165Z,10.25
2017-12-31T23:28:32.579Z,10.21
2017-12-31T23:30:33.993Z,10.24
2017-12-31T23:32:35.454Z,10.19
2017-12-31T23:34:36.841Z,10.24
2017-12-31T23:36:38.257Z,10.19
2017-12-31T23:38:39.690Z,10.15
2017-12-31T23:40:41.141Z,10.17
2017-12-31T23:42:42.555Z,10.15
2017-12-31T23:44:43.966Z,10.12
2017-12-31T23:46:45.382Z,10.21
2017-12-31T23:48:46.795Z,10.22
2017-12-31T23:50:48.213Z,10.32
2017-12-31T23:52:49.624Z,10.26
2017-12-31T23:54:51.040Z,10.28
2017-12-31T23:56:52.454Z,10.24
2017-12-31T23:58:53.864Z,10.15
